Time;durP1;ratioP1;P1;durP2;ratioP2;P2;SDS_P1;SDS_P2;PMS_P1;PMS_P2;Temp;Humidity;BMP_temperature;BMP_pressure;BME280_temperature;BME280_humidity;BME280_pressure;Samples;Min_cycle;Max_cycle;Signal;HPM_P1;HPM_P2
2022/01/10 00:00:22;;;;;;;36.65;14.77;;;;;;;;;;5031160;28;96624;-74
2022/01/10 00:02:50;;;;;;;42.25;15.20;;;;;;;;;;5034641;28;95317;-75
2022/01/10 00:05:17;;;;;;;31.92;13.80;;;;;;;;;;5031177;27;97621;-76
2022/01/10 00:07:43;;;;;;;35.53;13.73;;;;;;;;;;5031247;27;96280;-78
2022/01/10 00:10:09;;;;;;;45.50;15.60;;;;;;;;;;5030939;28;96850;-73
2022/01/10 00:12:36;;;;;;;35.10;12.55;;;;;;;;;;5031960;28;97275;-77
2022/01/10 00:15:03;;;;;;;28.27;13.30;;;;;;;;;;5031314;28;95208;-72
2022/01/10 00:17:29;;;;;;;30.50;12.43;;;;;;;;;;5032031;28;97227;-72
2022/01/10 00:19:56;;;;;;;30.45;12.68;;;;;;;;;;5031986;28;97377;-73
2022/01/10 00:22:24;;;;;;;20.00;11.18;;;;;;;;;;5030661;27;95525;-78
2022/01/10 00:24:51;;;;;;;25.88;11.90;;;;;;;;;;5035019;28;97170;-75
2022/01/10 00:27:17;;;;;;;28.70;11.90;;;;;;;;;;5032983;27;95293;-75
2022/01/10 00:29:43;;;;;;;24.25;12.68;;;;;;;;;;5034724;28;96954;-79
2022/01/10 00:32:10;;;;;;;22.42;11.63;;;;;;;;;;5035860;27;97911;-79
2022/01/10 00:34:36;;;;;;;28.80;12.60;;;;;;;;;;5036217;28;95189;-78
2022/01/10 00:37:02;;;;;;;27.13;13.55;;;;;;;;;;5036365;28;97148;-77
2022/01/10 00:39:29;;;;;;;29.25;13.07;;;;;;;;;;5033983;28;97491;-78
2022/01/10 00:41:56;;;;;;;29.13;12.50;;;;;;;;;;5034494;28;95352;-78
2022/01/10 00:44:25;;;;;;;23.05;12.63;;;;;;;;;;5037752;28;96716;-77
2022/01/10 00:46:52;;;;;;;21.23;12.05;;;;;;;;;;5035691;28;95814;-78
2022/01/10 00:49:19;;;;;;;30.45;13.10;;;;;;;;;;5034446;27;96863;-77
2022/01/10 00:51:45;;;;;;;32.13;14.43;;;;;;;;;;5034905;28;97766;-76
2022/01/10 00:54:12;;;;;;;23.27;13.05;;;;;;;;;;5033355;28;95190;-79
2022/01/10 00:56:38;;;;;;;30.92;13.70;;;;;;;;;;5034615;28;96832;-78
2022/01/10 00:59:04;;;;;;;35.30;14.18;;;;;;;;;;5034687;28;96508;-77
2022/01/10 01:01:31;;;;;;;34.13;16.40;;;;;;;;;;5034682;28;95354;-78
2022/01/10 01:03:57;;;;;;;34.65;16.67;;;;;;;;;;5034883;28;96833;-79
2022/01/10 01:06:24;;;;;;;43.83;18.75;;;;;;;;;;5037454;28;97276;-78
2022/01/10 01:08:50;;;;;;;43.20;16.63;;;;;;;;;;5033559;28;96484;-79
2022/01/10 01:11:59;;;;;;;36.15;16.73;;;;;;;;;;5033400;28;97784;-78
2022/01/10 01:14:54;;;;;;;38.85;16.45;;;;;;;;;;5034271;28;95327;-78
2022/01/10 01:17:24;;;;;;;52.55;19.88;;;;;;;;;;5032928;28;96890;-79
2022/01/10 01:25:09;;;;;;;46.60;17.45;;;;;;;;;;5033049;28;124830;-74
2022/01/10 01:27:36;;;;;;;42.00;16.70;;;;;;;;;;5034256;28;96261;-79
2022/01/10 01:30:03;;;;;;;34.75;16.38;;;;;;;;;;5037300;27;95471;-79
2022/01/10 01:32:29;;;;;;;37.40;16.42;;;;;;;;;;5033420;27;97450;-79
2022/01/10 01:35:02;;;;;;;38.65;16.73;;;;;;;;;;5034416;28;95209;-79
2022/01/10 01:37:29;;;;;;;30.90;15.48;;;;;;;;;;5033901;27;96799;-79
2022/01/10 01:39:56;;;;;;;40.53;17.83;;;;;;;;;;5033523;28;97404;-76
2022/01/10 01:42:38;;;;;;;40.67;16.40;;;;;;;;;;5034368;28;95335;-78
2022/01/10 01:45:07;;;;;;;34.00;16.08;;;;;;;;;;5033751;28;96906;-74
2022/01/10 01:47:34;;;;;;;30.15;15.57;;;;;;;;;;5033921;27;98589;-74
2022/01/10 01:50:00;;;;;;;39.38;16.40;;;;;;;;;;5034503;27;95380;-78
2022/01/10 01:52:27;;;;;;;31.77;16.63;;;;;;;;;;5036392;28;96824;-75
2022/01/10 01:54:54;;;;;;;38.67;18.10;;;;;;;;;;5032819;28;95083;-72
2022/01/10 01:57:20;;;;;;;44.40;19.38;;;;;;;;;;5033533;28;96893;-78
2022/01/10 01:59:47;;;;;;;52.33;19.75;;;;;;;;;;5033778;28;97466;-73
2022/01/10 02:02:14;;;;;;;55.20;20.75;;;;;;;;;;5033694;28;96825;-73
2022/01/10 02:04:41;;;;;;;54.78;20.63;;;;;;;;;;5034080;27;97111;-75
2022/01/10 02:07:07;;;;;;;46.03;21.23;;;;;;;;;;5033389;28;97237;-74
2022/01/10 02:09:34;;;;;;;45.67;19.67;;;;;;;;;;5033760;28;95359;-79
2022/01/10 02:12:00;;;;;;;39.85;18.52;;;;;;;;;;5033515;28;96851;-78
2022/01/10 02:14:27;;;;;;;35.13;18.42;;;;;;;;;;5036297;28;97838;-76
2022/01/10 02:16:57;;;;;;;43.33;18.92;;;;;;;;;;5033929;27;96630;-79
2022/01/10 02:19:23;;;;;;;39.65;19.30;;;;;;;;;;5033613;27;97293;-74
2022/01/10 02:21:50;;;;;;;33.15;18.42;;;;;;;;;;5033215;27;95936;-73
2022/01/10 02:24:17;;;;;;;33.72;16.85;;;;;;;;;;5033457;28;97029;-79
2022/01/10 02:26:47;;;;;;;35.15;17.90;;;;;;;;;;5033425;28;97301;-79
2022/01/10 02:29:14;;;;;;;43.13;19.02;;;;;;;;;;5033062;28;95367;-78
2022/01/10 02:31:40;;;;;;;43.45;18.85;;;;;;;;;;5033010;28;96871;-79
2022/01/10 02:34:07;;;;;;;44.90;19.50;;;;;;;;;;5033128;27;97295;-78
2022/01/10 02:36:33;;;;;;;43.38;20.50;;;;;;;;;;5036398;27;95120;-78
2022/01/10 02:39:01;;;;;;;42.33;19.27;;;;;;;;;;5033358;28;97341;-74
2022/01/10 02:41:29;;;;;;;44.97;20.13;;;;;;;;;;5032813;27;95277;-78
2022/01/10 02:43:56;;;;;;;54.13;19.63;;;;;;;;;;5033596;28;96744;-76
2022/01/10 02:46:24;;;;;;;43.65;19.98;;;;;;;;;;5032429;27;97635;-74
2022/01/10 02:48:50;;;;;;;52.35;19.90;;;;;;;;;;5032790;27;95346;-76
2022/01/10 02:51:16;;;;;;;39.13;17.77;;;;;;;;;;5032376;27;97012;-77
2022/01/10 02:53:43;;;;;;;36.90;18.73;;;;;;;;;;5033307;28;97537;-76
2022/01/10 02:56:10;;;;;;;33.33;17.73;;;;;;;;;;5035841;28;95561;-73
2022/01/10 02:58:36;;;;;;;45.95;19.85;;;;;;;;;;5032987;27;97894;-79
2022/01/10 03:01:03;;;;;;;42.38;19.80;;;;;;;;;;5032883;27;95468;-74
2022/01/10 03:03:30;;;;;;;38.30;20.23;;;;;;;;;;5032710;27;95702;-76
2022/01/10 03:06:00;;;;;;;45.58;20.92;;;;;;;;;;5032711;28;97417;-79
2022/01/10 03:08:27;;;;;;;46.65;20.95;;;;;;;;;;5032430;27;95320;-74
2022/01/10 03:10:54;;;;;;;58.55;23.27;;;;;;;;;;5032774;27;96333;-78
2022/01/10 03:13:21;;;;;;;47.90;22.55;;;;;;;;;;5032393;28;97301;-77
2022/01/10 03:15:47;;;;;;;52.75;23.55;;;;;;;;;;5032539;27;95410;-76
2022/01/10 03:18:13;;;;;;;61.92;24.58;;;;;;;;;;5034114;28;96757;-75
2022/01/10 03:20:40;;;;;;;59.38;24.40;;;;;;;;;;5033109;27;95476;-75
2022/01/10 03:23:07;;;;;;;46.05;22.85;;;;;;;;;;5033444;27;96757;-77
2022/01/10 03:25:33;;;;;;;67.47;24.60;;;;;;;;;;5033702;27;97403;-72
2022/01/10 03:27:59;;;;;;;45.38;22.05;;;;;;;;;;5032882;28;95367;-76
2022/01/10 03:30:26;;;;;;;53.55;22.13;;;;;;;;;;5031454;27;97265;-74
2022/01/10 03:32:53;;;;;;;43.70;21.80;;;;;;;;;;5032217;27;97392;-76
2022/01/10 03:35:19;;;;;;;66.13;23.40;;;;;;;;;;5032529;27;95454;-77
2022/01/10 03:37:45;;;;;;;56.42;23.50;;;;;;;;;;5032155;27;97194;-76
2022/01/10 03:40:11;;;;;;;50.40;23.33;;;;;;;;;;5035016;27;97424;-76
2022/01/10 03:42:38;;;;;;;64.00;23.10;;;;;;;;;;5032547;28;96999;-73
2022/01/10 03:45:05;;;;;;;46.90;23.23;;;;;;;;;;5031722;27;97426;-78
2022/01/10 03:47:31;;;;;;;49.35;23.42;;;;;;;;;;5032395;28;95379;-75
2022/01/10 03:49:58;;;;;;;53.05;23.42;;;;;;;;;;5036071;27;96725;-75
2022/01/10 03:52:25;;;;;;;53.10;24.67;;;;;;;;;;5051897;27;97348;-74
2022/01/10 03:54:51;;;;;;;51.33;24.23;;;;;;;;;;5051365;27;95152;-76
2022/01/10 03:57:18;;;;;;;52.13;23.67;;;;;;;;;;5031997;28;96855;-76
2022/01/10 03:59:44;;;;;;;55.63;24.27;;;;;;;;;;5031623;27;97292;-73
2022/01/10 04:02:10;;;;;;;54.25;23.35;;;;;;;;;;5035057;27;95522;-75
2022/01/10 04:04:38;;;;;;;59.90;26.20;;;;;;;;;;5032009;27;97341;-74
2022/01/10 04:07:05;;;;;;;51.88;22.95;;;;;;;;;;5031720;28;95511;-73
2022/01/10 04:09:32;;;;;;;60.53;27.02;;;;;;;;;;5031878;27;96818;-74
2022/01/10 04:11:58;;;;;;;58.72;25.35;;;;;;;;;;5031826;27;97208;-74
2022/01/10 04:14:24;;;;;;;59.72;26.58;;;;;;;;;;5045591;27;95481;-73
2022/01/10 04:16:51;;;;;;;63.22;27.27;;;;;;;;;;5033082;27;96847;-74
2022/01/10 04:19:17;;;;;;;53.75;26.15;;;;;;;;;;5031778;27;97431;-74
2022/01/10 04:21:43;;;;;;;68.65;28.65;;;;;;;;;;5031607;28;95334;-75
2022/01/10 04:24:11;;;;;;;66.47;28.45;;;;;;;;;;5034843;27;96859;-72
2022/01/10 04:26:37;;;;;;;57.50;26.92;;;;;;;;;;5031412;28;95529;-73
2022/01/10 04:29:03;;;;;;;58.78;29.23;;;;;;;;;;5032063;27;97155;-72
2022/01/10 04:31:29;;;;;;;57.25;27.77;;;;;;;;;;5031284;27;97482;-75
2022/01/10 04:33:56;;;;;;;56.03;26.40;;;;;;;;;;5031601;27;95383;-76
2022/01/10 04:36:22;;;;;;;57.17;28.55;;;;;;;;;;5031774;27;96876;-78
2022/01/10 04:38:48;;;;;;;66.95;30.10;;;;;;;;;;5030041;28;97358;-74
2022/01/10 04:41:15;;;;;;;57.78;28.10;;;;;;;;;;5048539;27;95403;-77
2022/01/10 04:43:41;;;;;;;65.15;30.33;;;;;;;;;;5051879;27;96860;-72
2022/01/10 04:46:07;;;;;;;71.32;30.70;;;;;;;;;;5034270;27;95009;-74
2022/01/10 04:48:34;;;;;;;73.18;30.13;;;;;;;;;;5049911;27;97152;-72
2022/01/10 04:51:12;;;;;;;64.63;30.02;;;;;;;;;;5051450;27;96585;-73
2022/01/10 04:53:43;;;;;;;64.50;29.10;;;;;;;;;;5052121;27;95155;-76
2022/01/10 04:56:09;;;;;;;63.92;28.45;;;;;;;;;;5051237;27;96825;-72
2022/01/10 04:58:36;;;;;;;69.65;31.27;;;;;;;;;;5051356;27;97351;-75
2022/01/10 05:01:03;;;;;;;67.05;29.63;;;;;;;;;;5035394;27;95375;-74
2022/01/10 05:03:30;;;;;;;64.28;31.50;;;;;;;;;;5020512;28;96933;-78
2022/01/10 05:05:56;;;;;;;76.60;32.20;;;;;;;;;;5014227;28;97560;-76
2022/01/10 05:08:23;;;;;;;58.85;29.30;;;;;;;;;;5011290;28;96307;-73
2022/01/10 05:10:50;;;;;;;54.03;28.33;;;;;;;;;;5010874;28;97732;-73
2022/01/10 05:13:17;;;;;;;62.42;28.33;;;;;;;;;;5012004;28;95328;-76
2022/01/10 05:15:46;;;;;;;63.88;28.80;;;;;;;;;;5045434;27;96928;-71
2022/01/10 05:18:16;;;;;;;52.25;24.85;;;;;;;;;;5034074;27;96508;-75
2022/01/10 05:20:42;;;;;;;71.95;29.10;;;;;;;;;;5034988;27;95330;-74
2022/01/10 05:23:09;;;;;;;52.03;27.67;;;;;;;;;;5034006;28;96836;-73
2022/01/10 05:25:39;;;;;;;62.65;30.33;;;;;;;;;;5033667;28;97312;-74
2022/01/10 05:28:10;;;;;;;59.13;30.60;;;;;;;;;;5038133;28;95286;-77
2022/01/10 05:30:37;;;;;;;54.78;28.33;;;;;;;;;;5033600;27;97073;-77
2022/01/10 05:33:04;;;;;;;72.47;31.63;;;;;;;;;;5033375;28;95399;-74
2022/01/10 05:35:30;;;;;;;57.15;28.50;;;;;;;;;;5033911;27;95192;-72
2022/01/10 05:38:00;;;;;;;58.70;31.48;;;;;;;;;;5033668;27;97263;-77
2022/01/10 05:40:27;;;;;;;76.70;31.40;;;;;;;;;;5031449;28;95387;-78
2022/01/10 05:42:54;;;;;;;74.07;30.85;;;;;;;;;;5034118;28;96784;-78
2022/01/10 05:45:20;;;;;;;63.70;29.52;;;;;;;;;;5033730;28;97115;-76
2022/01/10 05:47:47;;;;;;;113.10;34.58;;;;;;;;;;5034557;27;95398;-74
2022/01/10 05:50:17;;;;;;;55.05;30.73;;;;;;;;;;5027595;28;96925;-73
2022/01/10 05:52:43;;;;;;;60.72;30.90;;;;;;;;;;5023422;28;96212;-75
2022/01/10 05:55:10;;;;;;;93.85;33.30;;;;;;;;;;5034087;27;96964;-73
2022/01/10 05:57:36;;;;;;;71.70;32.10;;;;;;;;;;5034650;27;97284;-73
2022/01/10 06:00:03;;;;;;;57.53;30.45;;;;;;;;;;5040104;27;95313;-74
2022/01/10 06:02:30;;;;;;;69.22;32.38;;;;;;;;;;5033775;27;97110;-75
2022/01/10 06:04:59;;;;;;;67.88;32.92;;;;;;;;;;5032783;27;97450;-75
2022/01/10 06:07:25;;;;;;;68.35;31.13;;;;;;;;;;5033434;28;95261;-72
2022/01/10 06:09:52;;;;;;;69.07;30.95;;;;;;;;;;5033797;27;95790;-77
2022/01/10 06:12:19;;;;;;;70.43;31.98;;;;;;;;;;5035792;27;97796;-72
2022/01/10 06:14:45;;;;;;;56.10;28.83;;;;;;;;;;5034046;27;97493;-72
2022/01/10 06:17:11;;;;;;;67.82;31.20;;;;;;;;;;5033607;27;97258;-77
2022/01/10 06:19:37;;;;;;;60.80;30.30;;;;;;;;;;5033408;27;95343;-72
2022/01/10 06:22:04;;;;;;;57.45;30.70;;;;;;;;;;5033689;28;96854;-74
2022/01/10 06:24:30;;;;;;;74.82;32.70;;;;;;;;;;5033461;28;97671;-75
2022/01/10 06:26:57;;;;;;;66.38;32.25;;;;;;;;;;5033411;28;95384;-73
2022/01/10 06:29:23;;;;;;;65.10;30.52;;;;;;;;;;5042823;27;97171;-75
2022/01/10 06:31:49;;;;;;;66.53;30.15;;;;;;;;;;5033005;28;97403;-72
2022/01/10 06:34:18;;;;;;;85.70;33.38;;;;;;;;;;5035991;27;95224;-72
2022/01/10 06:36:45;;;;;;;63.20;30.63;;;;;;;;;;5033782;28;97075;-76
2022/01/10 06:39:11;;;;;;;68.75;31.40;;;;;;;;;;5033104;27;95510;-74
2022/01/10 06:41:38;;;;;;;72.72;30.02;;;;;;;;;;5038676;27;96883;-73
2022/01/10 06:44:04;;;;;;;52.83;28.27;;;;;;;;;;5032833;27;97171;-74
2022/01/10 06:46:30;;;;;;;63.45;30.67;;;;;;;;;;5033067;27;95411;-73
2022/01/10 06:48:57;;;;;;;70.22;32.38;;;;;;;;;;5032707;27;97044;-73
2022/01/10 06:51:23;;;;;;;72.38;32.97;;;;;;;;;;5032758;28;97445;-73
2022/01/10 06:53:50;;;;;;;64.93;32.08;;;;;;;;;;5038604;27;95169;-73
2022/01/10 06:56:16;;;;;;;71.93;31.48;;;;;;;;;;5031569;28;97437;-72
2022/01/10 06:58:42;;;;;;;67.68;30.08;;;;;;;;;;5029995;27;95195;-74
2022/01/10 07:01:09;;;;;;;65.10;30.25;;;;;;;;;;5032629;28;95702;-72
2022/01/10 07:03:35;;;;;;;65.47;29.92;;;;;;;;;;5031703;27;96306;-74
2022/01/10 07:06:02;;;;;;;61.15;30.08;;;;;;;;;;5032413;27;95345;-74
2022/01/10 07:08:28;;;;;;;94.43;36.60;;;;;;;;;;5029603;27;96839;-72
2022/01/10 07:10:54;;;;;;;63.22;30.42;;;;;;;;;;5035785;27;97072;-71
2022/01/10 07:13:21;;;;;;;67.68;31.02;;;;;;;;;;5040486;27;95409;-72
2022/01/10 07:15:48;;;;;;;66.85;31.55;;;;;;;;;;5032386;27;96722;-73
2022/01/10 07:18:14;;;;;;;74.07;33.42;;;;;;;;;;5031927;28;95820;-73
2022/01/10 07:20:43;;;;;;;99.65;42.58;;;;;;;;;;5031611;27;97244;-76
2022/01/10 07:23:10;;;;;;;93.78;39.55;;;;;;;;;;5036456;27;97315;-74
2022/01/10 16:14:15;;;;;;;45.67;18.58;;;;;;;;;;5139503;27;95264;-73
2022/01/10 16:16:43;;;;;;;43.03;18.75;;;;;;;;;;5129536;27;96380;-74
2022/01/10 16:19:10;;;;;;;33.90;17.75;;;;;;;;;;5128159;27;95324;-76
2022/01/10 16:21:37;;;;;;;38.67;19.25;;;;;;;;;;5129948;27;96693;-74
2022/01/10 16:24:03;;;;;;;33.10;17.95;;;;;;;;;;5128531;27;97309;-75
2022/01/10 16:26:31;;;;;;;34.00;19.67;;;;;;;;;;5113381;27;95753;-76
2022/01/10 16:28:57;;;;;;;42.50;21.80;;;;;;;;;;5117796;27;97003;-76
2022/01/10 16:31:44;;;;;;;41.25;19.52;;;;;;;;;;5117248;27;99175;-75
2022/01/10 16:34:11;;;;;;;39.72;20.10;;;;;;;;;;5132723;27;95904;-75
2022/01/10 16:36:37;;;;;;;34.38;19.52;;;;;;;;;;5129488;27;97289;-74
2022/01/10 16:39:06;;;;;;;40.13;19.52;;;;;;;;;;5129032;27;95273;-75
2022/01/10 16:41:32;;;;;;;41.78;20.02;;;;;;;;;;5129695;27;96916;-74
2022/01/10 16:43:59;;;;;;;46.05;20.38;;;;;;;;;;5129933;27;97098;-75
2022/01/10 16:46:27;;;;;;;48.95;20.00;;;;;;;;;;5129049;27;95093;-74
2022/01/10 16:48:53;;;;;;;45.28;21.08;;;;;;;;;;5130326;27;96805;-75
2022/01/10 16:51:21;;;;;;;49.63;20.92;;;;;;;;;;5110088;27;97307;-74
2022/01/10 16:53:48;;;;;;;49.63;21.73;;;;;;;;;;5129425;27;95213;-74
2022/01/10 16:56:14;;;;;;;48.40;22.25;;;;;;;;;;5132007;27;96806;-75
2022/01/10 16:58:40;;;;;;;51.13;21.83;;;;;;;;;;5129547;27;95354;-75
2022/01/10 17:01:07;;;;;;;42.83;21.48;;;;;;;;;;5110456;27;96508;-75
2022/01/10 17:03:33;;;;;;;46.17;21.00;;;;;;;;;;5129461;27;97382;-76
2022/01/10 17:06:00;;;;;;;46.88;21.92;;;;;;;;;;5129981;27;96521;-76
2022/01/10 17:11:03;;;;;;;43.50;21.95;;;;;;;;;;5009622;28;95452;-75
2022/01/10 17:13:29;;;;;;;45.65;21.80;;;;;;;;;;5006763;28;97357;-75
2022/01/10 17:15:58;;;;;;;49.15;22.60;;;;;;;;;;5007303;28;95343;-75
2022/01/10 17:18:24;;;;;;;46.38;21.63;;;;;;;;;;5010363;28;95543;-75
2022/01/10 17:20:50;;;;;;;54.47;22.52;;;;;;;;;;5008256;28;97230;-74
2022/01/10 17:23:17;;;;;;;47.95;22.25;;;;;;;;;;5003471;28;96245;-74
2022/01/10 17:25:43;;;;;;;41.70;21.90;;;;;;;;;;5007351;28;97051;-74
2022/01/10 17:28:10;;;;;;;50.40;22.42;;;;;;;;;;4989540;28;97307;-75
2022/01/10 17:30:37;;;;;;;46.63;22.33;;;;;;;;;;5021331;28;95343;-74
2022/01/10 17:33:05;;;;;;;52.70;22.65;;;;;;;;;;5006130;28;97238;-75
2022/01/10 17:35:35;;;;;;;51.75;22.30;;;;;;;;;;4986862;28;95430;-74
2022/01/10 17:38:01;;;;;;;45.63;21.35;;;;;;;;;;4987568;28;96754;-74
2022/01/10 17:40:28;;;;;;;54.22;22.33;;;;;;;;;;5002891;28;97489;-75
2022/01/10 17:42:54;;;;;;;51.50;23.60;;;;;;;;;;5006932;28;95454;-74
2022/01/10 17:45:21;;;;;;;48.97;23.38;;;;;;;;;;4988730;28;97306;-73
2022/01/10 17:47:47;;;;;;;45.63;22.60;;;;;;;;;;5003504;28;97431;-74
2022/01/10 17:50:17;;;;;;;45.28;22.45;;;;;;;;;;5004948;28;95871;-75
2022/01/10 17:52:49;;;;;;;49.30;23.08;;;;;;;;;;5008741;28;96848;-75
2022/01/10 17:55:16;;;;;;;43.78;21.77;;;;;;;;;;5006932;28;95164;-73
2022/01/10 17:57:43;;;;;;;43.38;20.75;;;;;;;;;;5004741;28;97071;-75
2022/01/10 18:00:13;;;;;;;45.05;21.85;;;;;;;;;;5013377;28;97320;-74
2022/01/10 18:02:43;;;;;;;51.60;22.13;;;;;;;;;;4999588;28;95251;-73
2022/01/10 18:05:11;;;;;;;48.75;22.20;;;;;;;;;;4999502;28;96872;-74
2022/01/10 18:07:37;;;;;;;46.65;22.33;;;;;;;;;;5006398;28;97290;-74
2022/01/10 18:10:04;;;;;;;55.28;22.42;;;;;;;;;;5005131;28;95437;-75
2022/01/10 18:12:30;;;;;;;49.35;20.80;;;;;;;;;;5019717;28;96706;-75
2022/01/10 18:14:57;;;;;;;101.78;21.92;;;;;;;;;;5016153;28;96521;-75
2022/01/10 18:17:23;;;;;;;87.00;20.35;;;;;;;;;;5011967;28;96769;-74
2022/01/10 18:19:51;;;;;;;45.63;18.55;;;;;;;;;;5003241;28;97343;-75
2022/01/10 18:22:19;;;;;;;46.10;18.05;;;;;;;;;;4973319;28;95346;-73
2022/01/10 18:24:46;;;;;;;46.75;17.85;;;;;;;;;;4990296;28;96873;-73
2022/01/10 18:27:12;;;;;;;68.35;17.95;;;;;;;;;;4992462;28;97158;-73
2022/01/10 18:29:39;;;;;;;37.20;18.98;;;;;;;;;;4992481;28;95338;-73
2022/01/10 18:32:05;;;;;;;61.17;19.10;;;;;;;;;;4986518;28;95818;-73
2022/01/10 18:34:32;;;;;;;64.28;16.83;;;;;;;;;;4986673;28;97293;-74
2022/01/10 18:36:58;;;;;;;49.90;18.45;;;;;;;;;;4996295;28;95320;-74
2022/01/10 18:39:25;;;;;;;51.65;17.45;;;;;;;;;;5007212;28;97827;-75
2022/01/10 18:41:54;;;;;;;51.08;17.27;;;;;;;;;;5012893;28;95409;-74
2022/01/10 18:44:20;;;;;;;62.53;16.48;;;;;;;;;;5005261;28;96923;-73
2022/01/10 18:46:47;;;;;;;36.50;15.98;;;;;;;;;;4992704;28;96324;-73
2022/01/10 18:49:13;;;;;;;110.03;16.77;;;;;;;;;;4979203;28;95405;-74
2022/01/10 18:51:40;;;;;;;38.45;14.98;;;;;;;;;;4987583;28;97177;-75
2022/01/10 18:54:07;;;;;;;65.38;16.10;;;;;;;;;;4982318;28;97625;-74
2022/01/10 18:56:33;;;;;;;44.53;17.10;;;;;;;;;;4988572;28;95200;-74
2022/01/10 18:59:05;;;;;;;48.45;16.42;;;;;;;;;;4985026;28;96653;-74
2022/01/10 19:01:32;;;;;;;;;;;;;;;;;;4985311;28;96861;-73
2022/01/10 19:03:58;;;;;;;75.80;15.35;;;;;;;;;;4991748;28;126246;-74
2022/01/10 19:06:25;;;;;;;83.38;15.55;;;;;;;;;;4978164;28;97277;-73
2022/01/10 19:08:52;;;;;;;66.68;15.50;;;;;;;;;;5001078;28;95395;-74
2022/01/10 19:11:20;;;;;;;101.05;18.40;;;;;;;;;;4983758;28;96986;-74
2022/01/10 19:13:46;;;;;;;57.53;19.20;;;;;;;;;;4984261;28;97138;-74
2022/01/10 19:16:12;;;;;;;76.75;18.10;;;;;;;;;;4987110;28;95209;-74
2022/01/10 19:18:39;;;;;;;143.80;21.38;;;;;;;;;;4989880;28;96685;-73
2022/01/10 19:21:05;;;;;;;145.82;22.17;;;;;;;;;;4988754;28;95379;-74
2022/01/10 19:23:32;;;;;;;146.00;24.73;;;;;;;;;;4993797;28;96937;-74
2022/01/10 19:25:59;;;;;;;164.15;26.27;;;;;;;;;;4992566;28;97565;-73
2022/01/10 19:28:25;;;;;;;163.25;21.17;;;;;;;;;;4992563;28;95479;-74
2022/01/10 19:30:52;;;;;;;67.40;18.27;;;;;;;;;;4982266;28;97009;-73
2022/01/10 19:33:18;;;;;;;70.97;19.25;;;;;;;;;;4986607;28;97399;-74
2022/01/10 19:35:45;;;;;;;95.03;20.60;;;;;;;;;;4991440;28;95165;-74
2022/01/10 19:38:12;;;;;;;145.77;23.83;;;;;;;;;;4981948;28;96811;-74
2022/01/10 19:40:38;;;;;;;67.97;19.08;;;;;;;;;;4985932;28;97292;-74
2022/01/10 19:43:08;;;;;;;112.38;21.77;;;;;;;;;;4992073;28;96796;-74
2022/01/10 19:45:34;;;;;;;95.47;19.25;;;;;;;;;;4993510;28;97357;-73
2022/01/10 19:48:01;;;;;;;63.08;18.10;;;;;;;;;;5007259;28;96762;-73
2022/01/10 19:50:27;;;;;;;188.30;21.38;;;;;;;;;;4983071;28;96786;-73
2022/01/10 19:52:54;;;;;;;84.30;18.70;;;;;;;;;;5001063;28;97261;-74
2022/01/10 19:55:20;;;;;;;82.72;19.73;;;;;;;;;;5004142;28;95433;-74
2022/01/10 19:57:47;;;;;;;71.32;19.15;;;;;;;;;;4991233;28;96825;-75
2022/01/10 20:00:18;;;;;;;154.65;20.95;;;;;;;;;;4991937;28;97354;-73
2022/01/10 20:02:45;;;;;;;;;;;;;;;;;;4995510;28;95372;-74
2022/01/10 20:05:12;;;;;;;116.65;17.73;;;;;;;;;;4992409;28;127318;-74
2022/01/10 20:07:39;;;;;;;147.90;19.48;;;;;;;;;;4995398;28;95286;-74
2022/01/10 20:10:06;;;;;;;80.80;18.30;;;;;;;;;;4990305;28;97714;-74
2022/01/10 20:12:32;;;;;;;74.65;19.60;;;;;;;;;;4991355;28;96914;-74
2022/01/10 20:14:58;;;;;;;81.65;19.27;;;;;;;;;;4991574;28;95157;-74
2022/01/10 20:17:24;;;;;;;78.75;18.50;;;;;;;;;;4991814;28;96834;-75
2022/01/10 20:19:51;;;;;;;151.43;22.23;;;;;;;;;;4991993;28;98640;-73
2022/01/10 20:22:17;;;;;;;72.07;19.05;;;;;;;;;;5004938;28;95214;-73
2022/01/10 20:24:43;;;;;;;121.35;19.77;;;;;;;;;;4993500;28;96834;-74
2022/01/10 20:27:10;;;;;;;80.43;20.08;;;;;;;;;;4992961;28;97241;-74
2022/01/10 20:29:36;;;;;;;72.70;21.17;;;;;;;;;;4991857;28;96820;-74
2022/01/10 20:32:03;;;;;;;108.18;21.00;;;;;;;;;;5006061;28;97889;-74
2022/01/10 20:34:29;;;;;;;196.48;22.48;;;;;;;;;;4991561;28;95327;-73
2022/01/10 20:36:55;;;;;;;103.68;19.77;;;;;;;;;;4993842;28;96403;-74
2022/01/10 20:39:22;;;;;;;161.98;26.15;;;;;;;;;;4998892;28;97226;-73
2022/01/10 20:41:48;;;;;;;147.27;22.48;;;;;;;;;;4991516;28;95459;-74
2022/01/10 20:44:14;;;;;;;255.50;24.25;;;;;;;;;;4990840;28;96775;-73
2022/01/10 20:46:43;;;;;;;160.75;21.60;;;;;;;;;;4994836;28;97261;-73
2022/01/10 20:49:09;;;;;;;122.88;19.10;;;;;;;;;;4990685;28;96020;-74
2022/01/10 20:51:36;;;;;;;77.13;17.13;;;;;;;;;;4988544;28;97279;-73
2022/01/10 20:54:07;;;;;;;136.15;18.95;;;;;;;;;;4992035;28;96614;-73
2022/01/10 20:56:33;;;;;;;95.65;17.58;;;;;;;;;;4991514;28;99914;-73
2022/01/10 20:59:00;;;;;;;92.43;17.23;;;;;;;;;;4991299;28;97380;-73
2022/01/10 21:01:26;;;;;;;79.72;15.68;;;;;;;;;;4990144;28;96097;-74
2022/01/10 21:03:53;;;;;;;77.40;15.90;;;;;;;;;;4990815;28;96153;-73
2022/01/10 21:06:21;;;;;;;87.90;16.73;;;;;;;;;;4993972;28;97092;-73
2022/01/10 21:08:47;;;;;;;63.97;16.52;;;;;;;;;;5013550;28;95284;-73
2022/01/10 21:11:14;;;;;;;65.68;16.88;;;;;;;;;;5010760;28;97263;-73
2022/01/10 21:13:41;;;;;;;77.60;17.60;;;;;;;;;;4982572;28;95284;-73
2022/01/10 21:16:07;;;;;;;66.70;17.35;;;;;;;;;;4988206;28;97147;-72
2022/01/10 21:18:33;;;;;;;104.75;18.63;;;;;;;;;;5010893;28;96083;-73
2022/01/10 21:21:00;;;;;;;64.85;17.90;;;;;;;;;;5001570;28;95330;-74
2022/01/10 21:23:28;;;;;;;65.68;17.90;;;;;;;;;;4979196;28;96828;-74
2022/01/10 21:25:55;;;;;;;71.00;18.45;;;;;;;;;;4991145;28;97575;-73
2022/01/10 21:28:22;;;;;;;105.72;20.35;;;;;;;;;;4994782;28;95414;-72
2022/01/10 21:30:50;;;;;;;75.10;18.30;;;;;;;;;;4989647;28;97274;-73
2022/01/10 21:33:17;;;;;;;78.70;19.30;;;;;;;;;;4983836;28;96195;-73
2022/01/10 21:35:44;;;;;;;58.08;18.67;;;;;;;;;;4998925;28;96827;-73
2022/01/10 21:38:11;;;;;;;85.72;19.42;;;;;;;;;;4990469;28;97530;-73
2022/01/10 21:40:37;;;;;;;59.08;18.65;;;;;;;;;;5002851;28;95282;-73
2022/01/10 21:43:05;;;;;;;76.72;20.08;;;;;;;;;;4989114;28;97074;-73
2022/01/10 21:45:32;;;;;;;64.47;17.90;;;;;;;;;;4990456;28;97239;-73
2022/01/10 21:48:00;;;;;;;67.82;19.10;;;;;;;;;;4991015;28;95307;-73
2022/01/10 21:50:28;;;;;;;77.38;18.95;;;;;;;;;;4993402;28;97268;-74
2022/01/10 21:52:55;;;;;;;77.50;19.50;;;;;;;;;;4991803;28;95420;-73
2022/01/10 21:55:22;;;;;;;61.08;18.77;;;;;;;;;;4979754;28;96599;-73
2022/01/10 21:57:49;;;;;;;60.33;19.73;;;;;;;;;;4974301;28;97207;-73
2022/01/10 22:00:18;;;;;;;78.90;20.17;;;;;;;;;;4989789;28;95544;-73
2022/01/10 22:02:45;;;;;;;70.05;21.38;;;;;;;;;;4987267;28;95943;-73
2022/01/10 22:05:15;;;;;;;78.15;20.70;;;;;;;;;;4994252;28;97232;-74
2022/01/10 22:07:42;;;;;;;65.80;20.45;;;;;;;;;;4994173;28;95358;-74
2022/01/10 22:10:09;;;;;;;63.95;20.55;;;;;;;;;;4988147;28;96857;-74
2022/01/10 22:12:35;;;;;;;58.22;20.20;;;;;;;;;;4995218;28;97995;-74
2022/01/10 22:15:05;;;;;;;63.33;20.08;;;;;;;;;;4993981;28;97651;-74
2022/01/10 22:17:31;;;;;;;78.07;19.77;;;;;;;;;;5002569;28;97362;-74
2022/01/10 22:20:00;;;;;;;70.93;20.70;;;;;;;;;;4994352;28;96220;-74
2022/01/10 22:22:27;;;;;;;77.32;19.67;;;;;;;;;;4992200;28;96870;-75
2022/01/10 22:24:53;;;;;;;71.63;19.23;;;;;;;;;;5019389;28;97414;-72
2022/01/10 22:27:19;;;;;;;75.53;20.38;;;;;;;;;;4992055;28;95309;-74
2022/01/10 22:29:45;;;;;;;93.78;21.20;;;;;;;;;;4993004;28;97989;-74
2022/01/10 22:32:12;;;;;;;96.57;21.20;;;;;;;;;;5003464;28;97271;-74
2022/01/10 22:34:38;;;;;;;116.80;21.88;;;;;;;;;;4995814;28;95157;-74
2022/01/10 22:37:05;;;;;;;102.05;22.35;;;;;;;;;;4993706;28;97373;-74
2022/01/10 22:39:32;;;;;;;75.05;21.05;;;;;;;;;;5002287;28;95669;-72
2022/01/10 22:41:59;;;;;;;86.32;19.58;;;;;;;;;;4989627;28;96768;-75
2022/01/10 22:44:26;;;;;;;136.40;24.23;;;;;;;;;;4999652;28;97354;-74
2022/01/10 22:46:53;;;;;;;72.95;20.48;;;;;;;;;;4994596;28;95129;-75
2022/01/10 22:49:19;;;;;;;89.03;22.30;;;;;;;;;;5006981;28;96581;-74
2022/01/10 22:51:49;;;;;;;93.30;21.75;;;;;;;;;;5013203;28;97465;-74
2022/01/10 22:54:17;;;;;;;95.97;21.77;;;;;;;;;;5002841;28;95169;-73
2022/01/10 22:56:44;;;;;;;80.40;20.70;;;;;;;;;;4997253;28;96477;-72
2022/01/10 22:59:10;;;;;;;86.15;19.65;;;;;;;;;;4993373;28;95580;-71
2022/01/10 23:01:37;;;;;;;65.22;20.48;;;;;;;;;;4994021;28;96839;-72
2022/01/10 23:04:03;;;;;;;85.28;21.92;;;;;;;;;;4996291;28;97088;-73
2022/01/10 23:06:30;;;;;;;77.97;21.17;;;;;;;;;;4993495;28;95552;-73
2022/01/10 23:08:57;;;;;;;93.22;21.08;;;;;;;;;;4989949;28;97119;-71
2022/01/10 23:11:23;;;;;;;80.03;20.77;;;;;;;;;;4993334;28;97395;-71